createdAt,value
2018-09-22T00:02:18.700Z,13.00
2018-09-22T00:05:43.192Z,13.00
2018-09-22T00:09:10.542Z,13.10
2018-09-22T00:12:34.955Z,13.20
2018-09-22T00:15:59.406Z,13.20
2018-09-22T00:19:24.016Z,13.30
2018-09-22T00:22:48.432Z,13.20
2018-09-22T00:26:12.863Z,12.70
2018-09-22T00:29:37.280Z,12.30
2018-09-22T00:33:01.711Z,12.00
2018-09-22T00:36:26.128Z,11.80
2018-09-22T00:39:50.525Z,11.70
2018-09-22T00:43:15.120Z,11.60
2018-09-22T00:46:39.652Z,11.50
2018-09-22T00:50:05.156Z,11.50
2018-09-22T00:53:29.551Z,11.50
2018-09-22T00:56:53.952Z,11.50
2018-09-22T01:00:18.415Z,11.40
2018-09-22T01:03:42.900Z,11.40
2018-09-22T01:07:07.358Z,11.40
2018-09-22T01:10:32.174Z,11.30
2018-09-22T01:13:56.601Z,11.40
2018-09-22T01:17:21.016Z,11.40
2018-09-22T01:20:45.520Z,11.40
2018-09-22T01:24:10.002Z,11.30
2018-09-22T01:27:34.432Z,11.20
2018-09-22T01:30:58.880Z,11.20
2018-09-22T01:34:23.267Z,11.00
2018-09-22T01:37:47.721Z,11.00
2018-09-22T01:41:12.237Z,10.90
2018-09-22T01:44:36.858Z,10.90
2018-09-22T01:48:01.377Z,10.90
2018-09-22T01:51:25.846Z,11.00
2018-09-22T01:54:50.256Z,11.00
2018-09-22T01:58:14.696Z,11.00
2018-09-22T02:01:39.172Z,11.10
2018-09-22T02:05:03.718Z,11.20
2018-09-22T02:08:28.187Z,11.30
2018-09-22T02:11:52.647Z,11.40
2018-09-22T02:15:17.085Z,11.50
2018-09-22T02:18:41.510Z,11.60
2018-09-22T02:22:05.961Z,11.60
2018-09-22T02:25:30.406Z,11.70
2018-09-22T02:28:54.807Z,11.60
2018-09-22T02:32:19.266Z,11.60
2018-09-22T02:35:43.746Z,11.60
2018-09-22T02:39:10.279Z,11.60
2018-09-22T02:42:34.782Z,11.70
2018-09-22T02:45:59.204Z,11.60
2018-09-22T02:49:23.609Z,11.60
2018-09-22T02:52:47.996Z,11.60
2018-09-22T02:56:12.405Z,11.60
2018-09-22T02:59:36.830Z,11.60
2018-09-22T03:03:01.250Z,11.50
2018-09-22T03:06:25.652Z,11.60
2018-09-22T03:09:50.025Z,11.60
2018-09-22T03:13:14.453Z,11.60
2018-09-22T03:16:39.166Z,11.70
2018-09-22T03:20:03.564Z,11.60
2018-09-22T03:23:27.969Z,11.70
2018-09-22T03:26:53.640Z,11.70
2018-09-22T03:30:18.050Z,11.60
2018-09-22T03:33:42.494Z,11.70
2018-09-22T03:37:07.005Z,11.80
2018-09-22T03:40:31.420Z,11.80
2018-09-22T03:43:56.080Z,11.80
2018-09-22T03:47:20.506Z,11.80
2018-09-22T03:50:44.919Z,11.80
2018-09-22T03:54:09.371Z,11.80
2018-09-22T03:57:33.918Z,11.90
2018-09-22T04:00:58.299Z,11.90
2018-09-22T04:04:22.793Z,12.00
2018-09-22T04:07:47.184Z,12.00
2018-09-22T04:11:11.596Z,12.10
2018-09-22T04:14:36.018Z,12.10
2018-09-22T04:18:00.473Z,12.10
2018-09-22T04:21:25.020Z,12.10
2018-09-22T04:24:49.447Z,12.10
2018-09-22T04:28:13.924Z,12.10
2018-09-22T04:31:38.379Z,12.10
2018-09-22T04:35:02.827Z,12.10
2018-09-22T04:38:27.246Z,12.20
2018-09-22T04:41:51.695Z,12.20
2018-09-22T04:45:16.155Z,12.20
2018-09-22T04:48:40.684Z,12.20
2018-09-22T04:52:05.127Z,12.20
2018-09-22T04:55:29.764Z,12.10
2018-09-22T04:58:54.438Z,12.10
2018-09-22T05:02:18.890Z,12.10
2018-09-22T05:05:43.278Z,12.10
2018-09-22T05:09:11.446Z,12.20
2018-09-22T05:12:35.886Z,12.10
2018-09-22T05:16:00.313Z,12.10
2018-09-22T05:19:24.810Z,12.10
2018-09-22T05:22:49.219Z,12.00
2018-09-22T05:26:13.635Z,12.00
2018-09-22T05:29:38.186Z,12.00
2018-09-22T05:33:02.631Z,12.00
2018-09-22T05:36:27.073Z,12.00
2018-09-22T05:39:51.480Z,12.00
2018-09-22T05:43:15.907Z,12.00
2018-09-22T05:46:40.406Z,12.00
2018-09-22T05:50:04.910Z,12.00
2018-09-22T05:53:29.307Z,12.00
2018-09-22T05:56:53.765Z,12.00
2018-09-22T06:00:18.199Z,12.00
2018-09-22T06:03:42.669Z,12.00
2018-09-22T06:07:07.332Z,12.00
2018-09-22T06:10:31.816Z,12.10
2018-09-22T06:13:56.252Z,12.20
2018-09-22T06:17:20.682Z,12.20
2018-09-22T06:20:45.073Z,12.30
2018-09-22T06:24:09.592Z,12.30
2018-09-22T06:27:34.027Z,12.40
2018-09-22T06:30:58.443Z,12.40
2018-09-22T06:34:22.871Z,12.50
2018-09-22T06:37:47.335Z,12.50
2018-09-22T06:41:11.750Z,12.50
2018-09-22T06:44:36.189Z,12.50
2018-09-22T06:48:00.606Z,12.50
2018-09-22T06:51:25.069Z,12.60
2018-09-22T06:54:49.552Z,12.60
2018-09-22T06:58:13.953Z,12.70
2018-09-22T07:01:38.361Z,12.80
2018-09-22T07:05:02.756Z,12.80
2018-09-22T07:08:27.156Z,12.90
2018-09-22T07:11:51.563Z,13.00
2018-09-22T07:15:16.672Z,13.00
2018-09-22T07:18:41.330Z,13.10
2018-09-22T07:22:10.940Z,13.20
2018-09-22T07:25:35.511Z,13.30
2018-09-22T07:29:00.078Z,13.30
2018-09-22T07:32:24.526Z,13.30
2018-09-22T07:35:49.038Z,13.30
2018-09-22T07:39:13.688Z,13.20
2018-09-22T07:42:38.097Z,13.20
2018-09-22T07:46:02.554Z,13.30
2018-09-22T07:49:26.994Z,13.40
2018-09-22T07:52:51.470Z,13.40
2018-09-22T07:56:15.943Z,13.50
2018-09-22T07:59:40.392Z,13.70
2018-09-22T08:03:04.857Z,13.90
2018-09-22T08:06:29.287Z,14.10
2018-09-22T08:09:53.706Z,14.20
2018-09-22T08:13:18.157Z,14.40
2018-09-22T08:16:42.589Z,14.40
2018-09-22T08:20:07.596Z,14.20
2018-09-22T08:23:31.979Z,14.20
2018-09-22T08:26:56.431Z,14.40
2018-09-22T08:30:20.850Z,14.40
2018-09-22T08:33:45.256Z,14.60
2018-09-22T08:37:09.858Z,14.50
2018-09-22T08:40:34.142Z,14.70
2018-09-22T08:43:58.591Z,14.80
2018-09-22T08:47:23.082Z,14.90
2018-09-22T08:50:47.512Z,15.10
2018-09-22T08:54:11.900Z,15.00
2018-09-22T08:57:36.309Z,15.10
2018-09-22T09:01:00.776Z,15.30
2018-09-22T09:04:25.151Z,15.30
2018-09-22T09:07:49.601Z,15.40
2018-09-22T09:11:14.037Z,15.40
2018-09-22T09:14:38.529Z,15.30
2018-09-22T09:18:02.906Z,15.40
2018-09-22T09:21:27.374Z,15.70
2018-09-22T09:24:51.935Z,16.00
2018-09-22T09:28:16.382Z,16.20
2018-09-22T09:31:40.839Z,17.00
2018-09-22T09:35:05.349Z,17.30
2018-09-22T09:38:30.987Z,17.50
2018-09-22T09:41:55.408Z,17.40
2018-09-22T09:45:19.822Z,17.20
2018-09-22T09:48:44.257Z,17.10
2018-09-22T09:52:09.283Z,17.40
2018-09-22T09:55:33.684Z,17.30
2018-09-22T09:58:58.138Z,17.10
2018-09-22T10:02:24.922Z,17.20
2018-09-22T10:05:49.640Z,17.50
2018-09-22T10:09:14.104Z,17.30
2018-09-22T10:12:38.649Z,17.40
2018-09-22T10:16:03.146Z,18.00
2018-09-22T10:19:27.939Z,18.70
2018-09-22T10:22:52.652Z,19.50
2018-09-22T10:26:17.288Z,21.10
2018-09-22T10:29:43.085Z,21.00
2018-09-22T10:33:07.543Z,19.80
2018-09-22T10:36:32.457Z,20.20
2018-09-22T10:39:57.896Z,20.90
2018-09-22T10:43:23.644Z,20.70
2018-09-22T10:46:49.310Z,20.60
2018-09-22T10:50:14.628Z,20.20
2018-09-22T10:53:39.536Z,19.60
2018-09-22T10:57:03.925Z,19.40
2018-09-22T11:00:28.299Z,19.50
2018-09-22T11:03:52.747Z,19.10
2018-09-22T11:07:17.171Z,18.50
2018-09-22T11:10:41.623Z,18.00
2018-09-22T11:14:06.103Z,17.80
2018-09-22T11:17:30.558Z,17.70
2018-09-22T11:20:54.997Z,18.10
2018-09-22T11:24:20.431Z,18.00
2018-09-22T11:27:45.701Z,18.00
2018-09-22T11:31:10.282Z,17.90
2018-09-22T11:34:35.159Z,18.10
2018-09-22T11:37:59.961Z,18.40
2018-09-22T11:41:24.857Z,18.60
2018-09-22T11:44:49.358Z,19.00
2018-09-22T11:48:13.778Z,18.90
2018-09-22T11:51:38.763Z,19.30
2018-09-22T11:55:03.454Z,19.50
2018-09-22T11:58:28.376Z,19.60
2018-09-22T12:01:52.863Z,19.20
2018-09-22T12:05:17.346Z,18.50
2018-09-22T12:08:41.812Z,18.30
2018-09-22T12:12:06.383Z,18.20
2018-09-22T12:15:30.910Z,18.00
2018-09-22T12:18:55.404Z,17.80
2018-09-22T12:22:20.091Z,17.50
2018-09-22T12:25:44.772Z,17.40
2018-09-22T12:29:09.314Z,17.10
2018-09-22T12:32:34.042Z,17.20
2018-09-22T12:35:59.924Z,17.30
2018-09-22T12:39:24.605Z,17.30
2018-09-22T12:42:55.690Z,17.10
2018-09-22T12:46:22.594Z,17.10
2018-09-22T12:49:48.489Z,16.90
2018-09-22T12:53:13.713Z,16.50
2018-09-22T12:56:38.252Z,16.60
2018-09-22T13:00:03.300Z,16.60
2018-09-22T13:03:28.119Z,16.70
2018-09-22T13:06:52.572Z,16.80
2018-09-22T13:10:17.116Z,16.90
2018-09-22T13:13:42.010Z,16.90
2018-09-22T13:17:06.657Z,16.90
2018-09-22T13:20:31.120Z,16.80
2018-09-22T13:23:55.915Z,16.80
2018-09-22T13:27:20.711Z,16.80
2018-09-22T13:30:45.220Z,16.80
2018-09-22T13:34:09.990Z,16.90
2018-09-22T13:37:34.899Z,16.90
2018-09-22T13:40:59.863Z,16.60
2018-09-22T13:44:25.748Z,16.00
2018-09-22T13:47:50.444Z,15.60
2018-09-22T13:51:16.476Z,15.30
2018-09-22T13:54:42.198Z,15.10
2018-09-22T13:58:07.414Z,14.80
2018-09-22T14:01:33.010Z,14.60
2018-09-22T14:04:58.175Z,14.40
2018-09-22T14:08:23.663Z,14.40
2018-09-22T14:11:48.240Z,14.50
2018-09-22T14:15:12.970Z,14.50
2018-09-22T14:18:38.199Z,14.70
2018-09-22T14:22:03.441Z,14.80
2018-09-22T14:25:28.241Z,14.90
2018-09-22T14:28:54.438Z,14.80
2018-09-22T14:32:20.501Z,14.80
2018-09-22T14:35:47.468Z,14.80
2018-09-22T14:39:13.046Z,14.70
2018-09-22T14:42:37.571Z,14.80
2018-09-22T14:46:02.733Z,14.80
2018-09-22T14:49:28.063Z,14.80
2018-09-22T14:52:53.920Z,14.90
2018-09-22T14:56:18.579Z,14.90
2018-09-22T14:59:43.498Z,14.60
2018-09-22T15:03:08.196Z,14.40
2018-09-22T15:06:32.653Z,14.20
2018-09-22T15:09:57.088Z,14.10
2018-09-22T15:13:21.626Z,13.90
2018-09-22T15:16:46.077Z,13.80
2018-09-22T15:20:10.555Z,13.70
2018-09-22T15:23:35.105Z,13.60
2018-09-22T15:26:59.655Z,13.50
2018-09-22T15:30:24.173Z,13.60
2018-09-22T15:33:48.568Z,13.60
2018-09-22T15:37:12.980Z,13.70
2018-09-22T15:40:37.477Z,13.80
2018-09-22T15:44:02.047Z,13.70
2018-09-22T15:47:26.513Z,13.50
2018-09-22T15:50:50.953Z,13.60
2018-09-22T15:54:15.379Z,13.60
2018-09-22T15:57:39.797Z,13.30
2018-09-22T16:01:04.216Z,13.10
2018-09-22T16:04:29.744Z,12.90
2018-09-22T16:07:54.235Z,12.80
2018-09-22T16:11:18.680Z,12.70
2018-09-22T16:14:43.171Z,12.60
2018-09-22T16:18:07.631Z,12.60
2018-09-22T16:21:32.567Z,12.70
2018-09-22T16:24:57.012Z,12.60
2018-09-22T16:28:21.439Z,12.60
2018-09-22T16:31:45.874Z,12.50
2018-09-22T16:35:10.403Z,12.40
2018-09-22T16:38:34.805Z,12.40
2018-09-22T16:42:00.948Z,12.50
2018-09-22T16:45:25.558Z,12.40
2018-09-22T16:48:50.506Z,12.30
2018-09-22T16:52:16.376Z,12.20
2018-09-22T16:55:41.569Z,12.10
2018-09-22T16:59:07.708Z,12.00
2018-09-22T17:02:33.101Z,11.90
2018-09-22T17:05:58.133Z,11.80
2018-09-22T17:09:23.303Z,11.70
2018-09-22T17:12:48.681Z,11.70
2018-09-22T17:16:14.120Z,11.70
2018-09-22T17:19:38.703Z,11.70
2018-09-22T17:23:03.748Z,11.70
2018-09-22T17:26:28.815Z,11.70
2018-09-22T17:29:53.658Z,11.60
2018-09-22T17:33:18.423Z,11.60
2018-09-22T17:36:43.500Z,11.60
2018-09-22T17:40:08.270Z,11.50
2018-09-22T17:43:32.991Z,11.40
2018-09-22T17:46:58.094Z,11.50
2018-09-22T17:50:23.085Z,11.50
2018-09-22T17:53:48.031Z,11.50
2018-09-22T17:57:13.501Z,11.50
2018-09-22T18:00:38.998Z,11.50
2018-09-22T18:04:04.418Z,11.40
2018-09-22T18:07:30.044Z,11.40
2018-09-22T18:10:55.598Z,11.50
2018-09-22T18:14:20.650Z,11.50
2018-09-22T18:17:45.691Z,11.50
2018-09-22T18:21:10.519Z,11.50
2018-09-22T18:24:35.421Z,11.60
2018-09-22T18:28:00.928Z,11.60
2018-09-22T18:31:26.459Z,11.50
2018-09-22T18:34:51.509Z,11.50
2018-09-22T18:38:17.052Z,11.50
2018-09-22T18:41:42.489Z,11.50
2018-09-22T18:45:07.332Z,11.50
2018-09-22T18:48:32.415Z,11.50
2018-09-22T18:51:58.142Z,11.50
2018-09-22T18:55:22.862Z,11.40
2018-09-22T18:58:47.410Z,11.40
2018-09-22T19:02:11.868Z,11.40
2018-09-22T19:05:36.310Z,11.50
2018-09-22T19:09:00.881Z,11.50
2018-09-22T19:12:25.415Z,11.40
2018-09-22T19:15:51.174Z,11.40
2018-09-22T19:19:20.480Z,11.30
2018-09-22T19:22:48.049Z,11.30
2018-09-22T19:26:20.927Z,11.30
2018-09-22T19:29:54.920Z,11.30
2018-09-22T19:33:51.689Z,11.30
2018-09-22T19:37:25.109Z,11.30
2018-09-22T19:41:57.598Z,11.30
2018-09-22T19:45:39.645Z,11.30
2018-09-22T19:49:17.377Z,11.30
2018-09-22T19:52:47.635Z,11.30
2018-09-22T19:56:12.215Z,11.40
2018-09-22T19:59:36.676Z,11.40
2018-09-22T20:03:01.164Z,11.40
2018-09-22T20:06:25.629Z,11.40
2018-09-22T20:09:50.149Z,11.40
2018-09-22T20:13:14.653Z,11.40
2018-09-22T20:16:39.176Z,11.40
2018-09-22T20:20:03.846Z,11.40
2018-09-22T20:23:28.397Z,11.30
2018-09-22T20:26:53.020Z,11.30
2018-09-22T20:30:17.661Z,11.20
2018-09-22T20:33:42.148Z,11.30
2018-09-22T20:37:06.700Z,11.30
2018-09-22T20:40:31.504Z,11.20
2018-09-22T20:43:56.021Z,11.10
2018-09-22T20:47:20.841Z,11.20
2018-09-22T20:50:45.438Z,11.20
2018-09-22T20:54:09.917Z,11.10
2018-09-22T20:57:35.770Z,11.10
2018-09-22T21:01:02.019Z,11.10
2018-09-22T21:04:27.628Z,11.00
2018-09-22T21:07:52.564Z,11.10
2018-09-22T21:11:17.232Z,11.00
2018-09-22T21:14:43.757Z,11.00
2018-09-22T21:18:09.301Z,11.00
2018-09-22T21:21:35.510Z,11.00
2018-09-22T21:25:00.747Z,10.90
2018-09-22T21:28:25.917Z,10.90
2018-09-22T21:31:50.333Z,10.90
2018-09-22T21:35:14.830Z,10.90
2018-09-22T21:38:40.043Z,10.90
2018-09-22T21:42:05.764Z,11.00
2018-09-22T21:45:30.618Z,10.90
2018-09-22T21:48:56.083Z,10.90
2018-09-22T21:52:22.205Z,10.90
2018-09-22T21:55:47.564Z,10.90
2018-09-22T21:59:13.491Z,10.90
2018-09-22T22:02:38.408Z,11.00
2018-09-22T22:06:03.200Z,10.90
2018-09-22T22:09:27.956Z,10.90
2018-09-22T22:12:52.646Z,10.90
2018-09-22T22:16:17.174Z,10.90
2018-09-22T22:19:41.699Z,10.90
2018-09-22T22:23:08.680Z,10.90
2018-09-22T22:26:34.369Z,10.90
2018-09-22T22:29:59.492Z,10.90
2018-09-22T22:33:24.462Z,11.00
2018-09-22T22:36:50.450Z,11.00
2018-09-22T22:40:14.908Z,11.10
2018-09-22T22:43:39.431Z,11.00
2018-09-22T22:47:03.933Z,11.00
2018-09-22T22:50:28.515Z,11.00
2018-09-22T22:53:53.094Z,11.00
2018-09-22T22:57:17.668Z,11.00
2018-09-22T23:00:42.231Z,11.00
2018-09-22T23:04:06.972Z,11.00
2018-09-22T23:07:31.448Z,11.00
2018-09-22T23:10:55.957Z,11.00
2018-09-22T23:14:20.373Z,11.00
2018-09-22T23:17:44.862Z,11.00
2018-09-22T23:21:09.474Z,11.00
2018-09-22T23:24:33.900Z,11.00
2018-09-22T23:27:58.351Z,10.90
2018-09-22T23:31:22.857Z,11.00
2018-09-22T23:34:47.272Z,11.00
2018-09-22T23:38:11.712Z,11.00
2018-09-22T23:41:36.157Z,11.00
2018-09-22T23:45:00.660Z,11.00
2018-09-22T23:48:25.093Z,11.10
2018-09-22T23:51:49.528Z,11.10
2018-09-22T23:55:14.015Z,11.10
2018-09-22T23:58:38.573Z,11.00
